KART/ART METAR and TAF weather

Enter ICAO airport designator
Station Type Date Time Source
KART METAR 2018/09/21 22:56 UTC NOAA

KART 212256Z AUTO 19014G23KT 9SM FEW120 24/20 A2964 RMK AO2 PK WND 19031/2216 RAB13E24 SLP031 P0000 T02440200 $


Station Type Date Time Source
KART Decoded METAR 2018/09/21 22:56 UTC NOAA

WATERTOWN INTERNATIONAL AIRPORT, NY, United States (KART) 43-59N 076-02W 100M
Sep 21, 2018 - 06:56 PM EDT / 2018.09.21 2256 UTC
Wind: from the S (190 degrees) at 16 MPH (14 KT) gusting to 26 MPH (23 KT):0
Visibility: 9 mile(s):0
Sky conditions: mostly clear
Precipitation last hour: A trace
Temperature: 75.9 F (24.4 C)
Dew Point: 68.0 F (20.0 C)
Relative Humidity: 76%
Pressure (altimeter): 29.64 in. Hg (1003 hPa)
ob: KART 212256Z AUTO 19014G23KT 9SM FEW120 24/20 A2964 RMK AO2 PK WND 19031/2216 RAB13E24 SLP031 P0000 T02440200
cycle: 23

Station Type Date Time Source
KART TAF 2018/09/21 21:51 UTC NOAA

TAF
AMD KART 212048Z 2121/2218 18015G30KT 6SM -SHRA VCTS SCT040CB
TEMPO 2122/2201 4SM -TSRA OVC025CB
FM220200 21019G31KT P6SM OVC045
FM220400 25017G24KT P6SM BKN070
FM220800 32013G20KT P6SM BKN080
FM221100 36012KT P6SM SCT130


Example: see airport list